Time;durP1;ratioP1;P1;durP2;ratioP2;P2;SDS_P1;SDS_P2;PMS_P1;PMS_P2;Temp;Humidity;BMP_temperature;BMP_pressure;BME280_temperature;BME280_humidity;BME280_pressure;Samples;Min_cycle;Max_cycle;Signal;HPM_P1;HPM_P2
2023/09/05 00:02:02;;;;;;;7.40;5.55;;;18.80;52.60;;;;;;5032756;28;114232;-78
2023/09/05 00:04:29;;;;;;;8.68;5.78;;;18.80;52.60;;;;;;5027955;28;114363;-79
2023/09/05 00:06:56;;;;;;;7.22;5.03;;;18.80;52.60;;;;;;5026029;28;118576;-77
2023/09/05 00:09:23;;;;;;;8.50;5.45;;;18.80;52.80;;;;;;5027052;28;114617;-78
2023/09/05 00:11:51;;;;;;;10.27;5.40;;;18.80;52.70;;;;;;5028140;27;114255;-79
2023/09/05 00:14:20;;;;;;;7.70;5.25;;;18.80;52.60;;;;;;5027800;28;114340;-79
2023/09/05 00:16:47;;;;;;;8.60;5.53;;;18.80;52.60;;;;;;5026810;28;115312;-78
2023/09/05 00:19:15;;;;;;;8.60;4.72;;;18.90;52.60;;;;;;5025727;28;115030;-78
2023/09/05 00:21:42;;;;;;;12.00;5.30;;;18.90;52.60;;;;;;5027513;28;114227;-78
2023/09/05 00:24:31;;;;;;;6.63;5.05;;;18.90;52.50;;;;;;5027920;28;114644;-79
2023/09/05 00:26:59;;;;;;;8.68;5.05;;;19.00;52.20;;;;;;5025673;28;115345;-78
2023/09/05 00:29:26;;;;;;;8.15;5.20;;;18.90;52.50;;;;;;5009842;28;114929;-78
2023/09/05 00:31:54;;;;;;;8.05;4.93;;;18.90;52.40;;;;;;5026976;28;114253;-78
2023/09/05 00:34:22;;;;;;;8.50;4.90;;;18.90;52.50;;;;;;5009853;28;114289;-78
2023/09/05 00:36:49;;;;;;;9.10;5.20;;;18.90;52.40;;;;;;5026107;28;114895;-78
2023/09/05 00:39:16;;;;;;;8.07;4.88;;;18.90;52.30;;;;;;5009138;28;118097;-78
2023/09/05 00:41:43;;;;;;;6.93;4.68;;;18.90;52.30;;;;;;5027249;28;114285;-78
2023/09/05 00:44:14;;;;;;;8.80;4.90;;;18.90;52.40;;;;;;5027612;28;114383;-78
2023/09/05 00:46:44;;;;;;;9.30;5.45;;;18.90;52.20;;;;;;5024879;28;116401;-78
2023/09/05 00:49:12;;;;;;;6.05;4.80;;;18.90;52.30;;;;;;5025054;28;115828;-78
2023/09/05 00:51:42;;;;;;;7.00;4.75;;;18.90;52.00;;;;;;5010028;28;114569;-78
2023/09/05 00:54:10;;;;;;;8.00;4.70;;;18.90;52.20;;;;;;5009959;28;114268;-78
2023/09/05 00:56:37;;;;;;;7.95;5.00;;;18.80;52.20;;;;;;5026016;28;114874;-79
2023/09/05 00:59:04;;;;;;;7.43;5.13;;;18.80;52.00;;;;;;5008429;28;114750;-79
2023/09/05 01:01:31;;;;;;;8.77;5.10;;;18.80;52.20;;;;;;5026081;28;114330;-79
2023/09/05 01:03:59;;;;;;;6.95;4.50;;;18.80;52.20;;;;;;5009831;28;114369;-78
2023/09/05 01:06:49;;;;;;;7.35;4.55;;;18.80;52.20;;;;;;5025007;28;114879;-79
2023/09/05 01:09:29;;;;;;;6.70;4.80;;;18.90;52.10;;;;;;5024361;28;117537;-79
2023/09/05 01:11:56;;;;;;;7.82;4.90;;;18.80;52.20;;;;;;5025653;28;114294;-78
2023/09/05 01:14:23;;;;;;;7.68;5.32;;;18.80;52.30;;;;;;5026794;28;114308;-79
2023/09/05 01:16:50;;;;;;;8.55;5.00;;;18.70;51.90;;;;;;5024654;28;115060;-79
2023/09/05 01:19:17;;;;;;;6.75;4.63;;;18.80;51.90;;;;;;5024759;28;114834;-78
2023/09/05 01:21:54;;;;;;;7.13;4.90;;;18.80;52.10;;;;;;5009507;28;114264;-78
2023/09/05 01:24:22;;;;;;;6.93;4.88;;;18.80;51.90;;;;;;5026245;28;114260;-79
2023/09/05 01:26:49;;;;;;;8.65;5.28;;;18.70;52.10;;;;;;5008358;28;114844;-79
2023/09/05 01:29:29;;;;;;;9.80;5.18;;;18.70;51.40;;;;;;5025006;28;114383;-79
2023/09/05 01:32:00;;;;;;;6.13;4.60;;;18.70;52.00;;;;;;5010789;28;114486;-78
2023/09/05 01:34:27;;;;;;;6.75;4.25;;;18.60;52.30;;;;;;5026818;28;114202;-79
2023/09/05 01:36:54;;;;;;;8.75;4.80;;;18.60;52.40;;;;;;5025105;28;114923;-78
2023/09/05 01:39:21;;;;;;;9.73;5.20;;;18.60;52.40;;;;;;5024007;28;115996;-79
2023/09/05 01:41:48;;;;;;;8.20;5.50;;;18.60;52.30;;;;;;5025253;28;114310;-78
2023/09/05 01:44:16;;;;;;;6.43;4.65;;;18.60;52.30;;;;;;5008516;28;114251;-78
2023/09/05 01:46:43;;;;;;;9.20;5.22;;;18.70;52.30;;;;;;5024563;28;115147;-79
2023/09/05 01:49:10;;;;;;;7.22;5.05;;;18.60;52.20;;;;;;5024280;28;115881;-78
2023/09/05 01:51:37;;;;;;;7.80;4.95;;;18.70;52.10;;;;;;5025616;28;114211;-77
2023/09/05 01:54:04;;;;;;;6.70;4.57;;;18.70;51.80;;;;;;5027230;28;114276;-79
2023/09/05 01:56:32;;;;;;;7.13;4.80;;;18.70;52.20;;;;;;5008738;28;114924;-79
2023/09/05 01:58:59;;;;;;;7.18;4.22;;;18.70;52.10;;;;;;5024963;28;115960;-79
2023/09/05 02:01:27;;;;;;;7.90;4.88;;;18.70;52.10;;;;;;5025711;28;114333;-79
2023/09/05 02:03:54;;;;;;;9.23;4.72;;;18.70;51.90;;;;;;5008921;28;114222;-79
2023/09/05 02:06:21;;;;;;;7.40;5.07;;;18.70;52.00;;;;;;5024293;28;115482;-79
2023/09/05 02:08:48;;;;;;;6.45;4.68;;;18.70;52.00;;;;;;5025679;28;114964;-79
2023/09/05 02:11:15;;;;;;;7.03;4.75;;;18.70;52.00;;;;;;5024872;28;114428;-80
2023/09/05 02:13:43;;;;;;;7.85;4.80;;;18.70;51.80;;;;;;5008012;28;114390;-79
2023/09/05 02:16:10;;;;;;;8.82;4.80;;;18.70;51.90;;;;;;5024353;28;114904;-79
2023/09/05 02:18:37;;;;;;;7.93;5.03;;;18.70;51.90;;;;;;5024659;28;114605;-79
2023/09/05 02:21:04;;;;;;;9.45;5.22;;;18.70;51.60;;;;;;5026430;27;114140;-78
2023/09/05 02:23:31;;;;;;;8.52;5.50;;;18.70;51.80;;;;;;5028243;28;114405;-79
2023/09/05 02:25:59;;;;;;;8.40;4.88;;;18.60;51.80;;;;;;5027200;28;115017;-77
2023/09/05 02:28:27;;;;;;;12.45;5.95;;;18.60;51.90;;;;;;5029282;28;115119;-78
2023/09/05 02:30:54;;;;;;;8.25;4.90;;;18.70;51.40;;;;;;5013361;28;114116;-78
2023/09/05 02:33:21;;;;;;;7.75;4.78;;;18.60;51.30;;;;;;5029631;28;114273;-77
2023/09/05 02:35:49;;;;;;;6.97;4.97;;;18.50;51.60;;;;;;5028109;28;115472;-77
2023/09/05 02:38:16;;;;;;;10.15;5.45;;;18.60;51.90;;;;;;5028985;28;114594;-77
2023/09/05 02:40:44;;;;;;;6.93;4.70;;;18.50;51.80;;;;;;5012076;28;114031;-77
2023/09/05 02:43:12;;;;;;;9.23;4.65;;;18.60;51.80;;;;;;5029531;28;114284;-78
2023/09/05 02:45:39;;;;;;;7.78;5.20;;;18.60;51.90;;;;;;5027034;28;115506;-78
2023/09/05 02:48:07;;;;;;;7.40;4.50;;;18.60;51.40;;;;;;5010542;28;116255;-79
2023/09/05 02:50:35;;;;;;;8.55;5.40;;;18.60;51.50;;;;;;5027431;28;114217;-79
2023/09/05 02:53:02;;;;;;;7.80;5.30;;;18.60;51.30;;;;;;5011407;28;114191;-78
2023/09/05 02:55:29;;;;;;;8.40;5.45;;;18.50;51.00;;;;;;5028415;27;114785;-78
2023/09/05 02:57:56;;;;;;;6.43;4.60;;;18.50;51.50;;;;;;5028427;28;114790;-78
2023/09/05 03:00:23;;;;;;;8.48;4.78;;;18.40;51.50;;;;;;5029161;28;114313;-78
2023/09/05 03:02:52;;;;;;;8.00;4.85;;;18.40;51.70;;;;;;5028936;28;114139;-79
2023/09/05 03:05:19;;;;;;;9.18;4.80;;;18.40;51.80;;;;;;5028018;28;114950;-79
2023/09/05 03:07:48;;;;;;;6.53;4.43;;;18.50;51.80;;;;;;5011142;28;114643;-79
2023/09/05 03:10:16;;;;;;;7.15;4.65;;;18.40;51.80;;;;;;5011652;28;114256;-79
2023/09/05 03:12:43;;;;;;;8.82;4.28;;;18.50;51.50;;;;;;5029536;28;114118;-80
2023/09/05 03:15:11;;;;;;;7.55;4.40;;;18.40;51.70;;;;;;5026629;28;115128;-79
2023/09/05 03:17:38;;;;;;;7.88;4.90;;;18.50;51.70;;;;;;5026857;28;114890;-79
2023/09/05 03:20:07;;;;;;;7.50;4.60;;;18.40;51.40;;;;;;5028856;28;114509;-79
2023/09/05 03:22:34;;;;;;;7.88;5.10;;;18.40;51.60;;;;;;5028646;28;114348;-79
2023/09/05 03:25:01;;;;;;;8.35;4.47;;;18.40;51.10;;;;;;5027854;28;114842;-79
2023/09/05 03:27:28;;;;;;;8.10;4.78;;;18.40;51.60;;;;;;5027888;28;114660;-79
2023/09/05 03:29:55;;;;;;;6.45;4.25;;;18.40;51.60;;;;;;5028927;28;114316;-79
2023/09/05 03:32:22;;;;;;;6.55;4.80;;;18.40;51.50;;;;;;5010715;28;114357;-79
2023/09/05 03:34:51;;;;;;;8.30;4.65;;;18.40;51.60;;;;;;5026122;28;114883;-80
2023/09/05 03:37:21;;;;;;;7.78;4.63;;;18.40;51.50;;;;;;5027487;28;114644;-78
2023/09/05 03:39:48;;;;;;;6.30;4.43;;;18.40;51.50;;;;;;4993749;28;114230;-79
2023/09/05 03:42:16;;;;;;;7.93;4.68;;;18.40;51.50;;;;;;5026877;28;114380;-78
2023/09/05 03:44:44;;;;;;;8.13;4.95;;;18.40;51.40;;;;;;5009985;28;115497;-78
2023/09/05 03:47:11;;;;;;;7.13;4.40;;;18.40;50.70;;;;;;5009707;28;114613;-78
2023/09/05 03:49:38;;;;;;;6.22;4.20;;;18.30;51.30;;;;;;5027036;28;114396;-78
2023/09/05 03:52:05;;;;;;;10.75;5.07;;;18.40;51.50;;;;;;5028172;28;114356;-77
2023/09/05 03:54:32;;;;;;;6.43;5.18;;;18.40;51.40;;;;;;5027378;28;115170;-78
2023/09/05 03:56:59;;;;;;;7.93;5.72;;;18.40;51.20;;;;;;5026336;28;115189;-77
2023/09/05 03:59:26;;;;;;;8.10;5.93;;;18.30;51.40;;;;;;5028342;28;114181;-77
2023/09/05 04:01:53;;;;;;;8.93;6.10;;;18.30;51.40;;;;;;5026852;28;114392;-78
2023/09/05 04:04:20;;;;;;;6.55;5.63;;;18.30;50.80;;;;;;5026791;28;114946;-78
2023/09/05 04:06:47;;;;;;;8.73;5.47;;;18.30;51.40;;;;;;5025688;28;115172;-78
2023/09/05 04:09:15;;;;;;;9.02;5.50;;;18.30;51.30;;;;;;5026878;28;114085;-79
2023/09/05 04:11:42;;;;;;;7.65;5.90;;;18.30;51.30;;;;;;5026506;28;114385;-78
2023/09/05 04:14:09;;;;;;;8.75;5.35;;;18.20;51.40;;;;;;5026531;28;114854;-79
2023/09/05 04:16:36;;;;;;;6.05;4.95;;;18.20;51.40;;;;;;5026777;28;114782;-78
2023/09/05 04:19:03;;;;;;;7.57;5.97;;;18.30;51.30;;;;;;5027916;28;114335;-78
2023/09/05 04:21:30;;;;;;;8.85;5.60;;;18.30;51.20;;;;;;5028062;28;114146;-77
2023/09/05 04:23:57;;;;;;;9.73;5.20;;;18.30;51.30;;;;;;5026607;28;116235;-78
2023/09/05 04:26:28;;;;;;;7.38;5.50;;;18.30;51.20;;;;;;5025455;28;114668;-78
2023/09/05 04:28:55;;;;;;;8.65;5.68;;;18.30;50.80;;;;;;5025777;28;114108;-77
2023/09/05 04:31:22;;;;;;;7.85;5.03;;;18.30;50.40;;;;;;5027665;28;114619;-78
2023/09/05 04:33:50;;;;;;;8.70;4.97;;;18.20;51.10;;;;;;5025344;28;115324;-77
2023/09/05 04:36:17;;;;;;;8.25;5.20;;;18.30;51.20;;;;;;5025120;28;115020;-78
2023/09/05 04:38:49;;;;;;;8.60;5.55;;;18.30;51.10;;;;;;5026402;28;114146;-78
2023/09/05 04:41:18;;;;;;;8.43;5.30;;;18.40;50.90;;;;;;5027296;28;114214;-78
2023/09/05 04:43:46;;;;;;;7.40;5.22;;;18.50;50.70;;;;;;5025187;28;114933;-78
2023/09/05 04:46:14;;;;;;;7.63;5.03;;;18.50;50.50;;;;;;5008449;28;115132;-78
2023/09/05 04:48:41;;;;;;;7.78;5.22;;;18.60;50.60;;;;;;5027291;28;114236;-78
2023/09/05 04:51:08;;;;;;;8.43;5.20;;;18.60;50.00;;;;;;5008998;28;114561;-78
2023/09/05 04:53:35;;;;;;;8.77;6.68;;;18.60;50.40;;;;;;5024503;28;114915;-77
2023/09/05 04:56:03;;;;;;;7.05;5.13;;;18.70;50.00;;;;;;5026247;28;114555;-77
2023/09/05 04:58:31;;;;;;;7.90;4.78;;;18.80;50.00;;;;;;5027599;28;114338;-78
2023/09/05 05:01:04;;;;;;;7.07;4.82;;;18.90;50.10;;;;;;5026003;28;114362;-77
2023/09/05 05:03:32;;;;;;;5.82;5.03;;;19.00;49.90;;;;;;5025071;28;114872;-77
2023/09/05 05:05:59;;;;;;;6.82;4.95;;;19.00;49.30;;;;;;5026351;27;114589;-78
2023/09/05 05:08:26;;;;;;;7.53;4.88;;;19.00;49.50;;;;;;5025829;28;114071;-78
2023/09/05 05:10:54;;;;;;;9.27;5.72;;;19.20;49.20;;;;;;5027065;28;114293;-78
2023/09/05 05:13:21;;;;;;;6.20;4.63;;;19.20;48.90;;;;;;5025963;28;116372;-78
2023/09/05 05:15:48;;;;;;;7.95;5.82;;;19.20;49.30;;;;;;5025970;28;114591;-77
2023/09/05 05:18:16;;;;;;;9.60;5.97;;;19.30;48.70;;;;;;5026590;28;114141;-79
2023/09/05 05:20:45;;;;;;;8.82;5.80;;;19.30;48.50;;;;;;5027070;28;114326;-77
2023/09/05 05:23:12;;;;;;;9.73;5.80;;;19.30;48.50;;;;;;5008361;28;114938;-79
2023/09/05 05:25:39;;;;;;;9.13;6.70;;;19.10;48.90;;;;;;5008535;28;114736;-79
2023/09/05 05:28:06;;;;;;;8.68;6.10;;;19.10;48.90;;;;;;5026977;28;114422;-78
2023/09/05 05:30:36;;;;;;;9.82;6.03;;;19.10;48.90;;;;;;5026709;28;114207;-78
2023/09/05 05:33:04;;;;;;;10.07;6.38;;;19.00;48.80;;;;;;5024338;28;116518;-79
2023/09/05 05:35:32;;;;;;;9.75;6.75;;;19.00;48.90;;;;;;5024910;28;114349;-78
2023/09/05 05:38:00;;;;;;;8.85;5.78;;;19.00;49.20;;;;;;5026756;27;114159;-79
2023/09/05 05:40:28;;;;;;;8.02;5.82;;;19.00;49.60;;;;;;5025676;28;114304;-78
2023/09/05 05:42:55;;;;;;;10.63;5.93;;;19.10;49.30;;;;;;5007337;28;115087;-78
2023/09/05 05:45:22;;;;;;;8.23;5.32;;;19.20;49.10;;;;;;5024669;28;114667;-79
2023/09/05 05:47:49;;;;;;;8.57;6.15;;;19.30;49.00;;;;;;5025567;28;114469;-79
2023/09/05 05:50:16;;;;;;;11.05;7.13;;;19.50;48.60;;;;;;5026511;28;114441;-78
2023/09/05 05:52:45;;;;;;;7.82;5.07;;;19.70;48.40;;;;;;5025541;28;114979;-78
2023/09/05 05:55:12;;;;;;;10.20;5.35;;;19.80;48.50;;;;;;5025218;28;114803;-78
2023/09/05 05:57:39;;;;;;;10.32;5.75;;;19.90;48.10;;;;;;5025216;28;114416;-77
2023/09/05 06:00:07;;;;;;;8.18;5.55;;;20.00;47.80;;;;;;5026872;28;114214;-79
2023/09/05 06:02:38;;;;;;;7.90;5.38;;;20.20;47.60;;;;;;5025472;28;114956;-79
2023/09/05 06:05:07;;;;;;;10.80;5.95;;;20.20;47.30;;;;;;5025341;28;114723;-78
2023/09/05 06:07:35;;;;;;;9.73;6.30;;;20.30;47.30;;;;;;5024869;28;114591;-78
2023/09/05 06:10:02;;;;;;;10.10;6.15;;;20.40;47.20;;;;;;5026407;28;114366;-78
2023/09/05 06:12:29;;;;;;;8.15;6.25;;;20.60;47.10;;;;;;5023919;28;118058;-78
2023/09/05 06:14:56;;;;;;;9.75;5.65;;;20.60;46.60;;;;;;5012891;28;118814;-79
2023/09/05 06:17:23;;;;;;;12.45;5.90;;;20.60;46.60;;;;;;5007718;28;114081;-78
2023/09/05 06:19:50;;;;;;;10.88;6.00;;;20.70;46.40;;;;;;5011531;28;114227;-78
2023/09/05 06:22:18;;;;;;;10.25;6.30;;;20.80;46.50;;;;;;5005675;28;115532;-78
2023/09/05 06:24:45;;;;;;;10.57;6.97;;;20.70;46.50;;;;;;5004100;28;116850;-79
2023/09/05 06:27:12;;;;;;;8.18;5.90;;;20.80;46.40;;;;;;5004646;28;114239;-78
2023/09/05 06:29:39;;;;;;;8.93;6.25;;;20.80;46.50;;;;;;5006260;28;114074;-78
2023/09/05 06:32:06;;;;;;;10.68;6.30;;;20.80;46.40;;;;;;5004428;28;115416;-79
2023/09/05 06:34:34;;;;;;;10.85;6.47;;;20.90;46.30;;;;;;5003968;28;114721;-78
2023/09/05 06:37:03;;;;;;;11.07;6.35;;;20.90;46.20;;;;;;4988336;28;114209;-78
2023/09/05 06:39:30;;;;;;;7.78;5.85;;;20.90;46.30;;;;;;5004776;28;114113;-80
2023/09/05 06:41:58;;;;;;;9.48;6.07;;;20.90;46.70;;;;;;5004078;28;115843;-79
2023/09/05 06:44:32;;;;;;;8.25;5.95;;;21.00;46.60;;;;;;5003776;28;114856;-79
2023/09/05 06:46:59;;;;;;;9.05;5.72;;;21.00;46.70;;;;;;5005943;28;114239;-79
2023/09/05 06:49:28;;;;;;;9.32;6.20;;;21.00;46.60;;;;;;5006959;28;114319;-79
2023/09/05 06:51:55;;;;;;;12.60;6.18;;;21.00;46.60;;;;;;5004875;28;115277;-80
2023/09/05 06:54:22;;;;;;;10.07;6.15;;;21.00;47.00;;;;;;5003301;28;118454;-78
2023/09/05 06:56:49;;;;;;;9.38;5.90;;;21.00;47.00;;;;;;5005112;28;114144;-80
2023/09/05 06:59:17;;;;;;;10.27;6.07;;;21.00;47.00;;;;;;5004626;28;114286;-80
2023/09/05 07:01:44;;;;;;;7.03;5.55;;;21.00;47.30;;;;;;5004328;28;116250;-79
2023/09/05 07:04:13;;;;;;;9.60;6.22;;;21.00;47.20;;;;;;4987050;28;114854;-80
2023/09/05 07:06:40;;;;;;;9.05;5.90;;;21.00;47.00;;;;;;5005311;28;114134;-78
2023/09/05 07:09:07;;;;;;;8.75;6.03;;;21.00;47.10;;;;;;4990114;28;114284;-78
2023/09/05 07:11:34;;;;;;;9.27;6.50;;;21.00;47.00;;;;;;5006411;28;115419;-79
2023/09/05 07:14:02;;;;;;;8.70;6.45;;;21.10;47.00;;;;;;5012252;28;114578;-78
2023/09/05 07:16:29;;;;;;;10.35;6.40;;;21.20;46.90;;;;;;5028016;28;114663;-79
2023/09/05 07:18:57;;;;;;;7.72;6.22;;;21.30;46.80;;;;;;5027483;28;115907;-78
2023/09/05 07:21:24;;;;;;;11.75;6.35;;;21.30;46.90;;;;;;5025616;28;118315;-78
2023/09/05 07:23:53;;;;;;;9.05;5.82;;;21.30;46.70;;;;;;5026576;28;114293;-79
2023/09/05 07:26:20;;;;;;;9.75;5.95;;;21.30;46.80;;;;;;5027922;28;114249;-80
2023/09/05 07:28:47;;;;;;;8.68;5.63;;;21.30;47.10;;;;;;5013282;28;114354;-78
2023/09/05 07:31:16;;;;;;;9.90;5.53;;;21.30;47.00;;;;;;5027812;28;117115;-78
2023/09/05 07:33:47;;;;;;;8.73;6.25;;;21.40;47.60;;;;;;5027886;28;114714;-79
2023/09/05 07:36:15;;;;;;;12.38;5.95;;;21.50;48.10;;;;;;5027295;28;114398;-79
2023/09/05 07:38:42;;;;;;;9.00;5.47;;;21.60;47.80;;;;;;5028477;28;114554;-79
2023/09/05 07:41:09;;;;;;;7.65;5.30;;;21.70;46.90;;;;;;5027765;28;118916;-79
2023/09/05 07:43:36;;;;;;;8.65;5.95;;;21.80;47.00;;;;;;5026401;28;114567;-80
2023/09/05 07:46:04;;;;;;;7.50;5.38;;;21.80;47.20;;;;;;5028137;28;115155;-79
2023/09/05 07:48:31;;;;;;;6.85;4.63;;;21.90;46.60;;;;;;5028331;28;114346;-79
2023/09/05 07:51:01;;;;;;;8.90;5.60;;;22.00;47.20;;;;;;5027605;28;114911;-79
2023/09/05 07:53:31;;;;;;;10.27;6.60;;;22.10;47.00;;;;;;5010076;28;115051;-79
2023/09/05 07:55:58;;;;;;;9.55;5.70;;;22.20;46.60;;;;;;5028464;28;114213;-80
2023/09/05 07:58:26;;;;;;;11.93;5.40;;;22.30;46.90;;;;;;5028253;28;114352;-79
2023/09/05 08:00:54;;;;;;;8.98;5.35;;;22.30;46.40;;;;;;5027012;28;117070;-78
2023/09/05 08:03:22;;;;;;;10.27;4.70;;;22.50;46.10;;;;;;5026356;28;114906;-79
2023/09/05 08:05:50;;;;;;;9.02;4.93;;;22.60;45.30;;;;;;5010324;28;114217;-79
2023/09/05 08:08:20;;;;;;;7.47;4.53;;;22.60;45.00;;;;;;5026711;28;114247;-79
2023/09/05 08:10:48;;;;;;;8.57;4.63;;;22.70;44.50;;;;;;5024836;28;117287;-80
2023/09/05 08:13:16;;;;;;;9.30;4.22;;;22.70;44.30;;;;;;5025859;28;114599;-79
2023/09/05 08:15:44;;;;;;;7.75;4.65;;;22.70;44.10;;;;;;5027795;27;114622;-78
2023/09/05 08:18:12;;;;;;;6.85;4.75;;;22.70;44.50;;;;;;5028010;28;114203;-78
2023/09/05 08:20:42;;;;;;;6.68;4.05;;;22.80;44.20;;;;;;5025977;27;114916;-78
2023/09/05 08:23:10;;;;;;;7.95;4.15;;;22.90;44.40;;;;;;5025287;28;115921;-79
2023/09/05 08:25:39;;;;;;;6.30;4.10;;;22.90;44.20;;;;;;5027923;28;114346;-79
2023/09/05 08:28:07;;;;;;;6.45;4.28;;;23.00;43.50;;;;;;5027850;28;114339;-79
2023/09/05 08:30:34;;;;;;;9.70;4.20;;;22.90;43.50;;;;;;5025671;28;115165;-79
2023/09/05 08:33:01;;;;;;;6.50;4.50;;;22.90;44.10;;;;;;5026471;28;114648;-80
2023/09/05 08:35:28;;;;;;;5.80;4.47;;;23.00;43.70;;;;;;5025985;28;114394;-78
2023/09/05 08:37:57;;;;;;;9.32;4.85;;;23.00;43.50;;;;;;5027575;28;114392;-78
2023/09/05 08:40:24;;;;;;;8.85;4.20;;;23.00;43.40;;;;;;5008859;28;118346;-78
2023/09/05 08:42:53;;;;;;;5.63;4.18;;;23.00;43.60;;;;;;5008025;28;117008;-78
2023/09/05 08:45:21;;;;;;;6.00;4.25;;;23.00;43.80;;;;;;5026032;28;114363;-79
2023/09/05 08:47:50;;;;;;;6.93;4.50;;;23.10;43.60;;;;;;5027215;28;114408;-78
2023/09/05 08:50:17;;;;;;;7.18;4.22;;;23.20;44.00;;;;;;5026483;28;114927;-79
2023/09/05 08:52:44;;;;;;;6.07;4.55;;;23.30;44.10;;;;;;5026563;28;114654;-79
2023/09/05 08:55:12;;;;;;;7.45;4.88;;;23.30;43.70;;;;;;5026305;28;114368;-79
2023/09/05 08:57:39;;;;;;;6.75;4.85;;;23.30;43.80;;;;;;5026969;28;114430;-79
2023/09/05 09:00:06;;;;;;;6.07;4.85;;;23.20;44.10;;;;;;5024606;28;115266;-79
2023/09/05 09:02:37;;;;;;;6.18;4.72;;;23.10;45.10;;;;;;5025916;28;115211;-79
2023/09/05 09:05:04;;;;;;;9.50;5.22;;;23.10;45.50;;;;;;5025825;28;114433;-78
2023/09/05 09:07:31;;;;;;;7.35;4.38;;;23.10;45.00;;;;;;5027170;28;114211;-78
2023/09/05 09:09:59;;;;;;;7.60;5.20;;;23.10;44.90;;;;;;5008245;28;115239;-79
2023/09/05 09:12:30;;;;;;;8.20;5.28;;;23.10;44.60;;;;;;5024642;28;115995;-79
2023/09/05 09:15:13;;;;;;;6.93;5.10;;;23.00;44.60;;;;;;5026618;27;114300;-78
2023/09/05 09:17:41;;;;;;;5.90;4.65;;;23.00;44.20;;;;;;5026078;28;114310;-78
2023/09/05 09:20:27;;;;;;;6.32;4.82;;;22.90;44.30;;;;;;5025935;28;114828;-79
2023/09/05 09:22:54;;;;;;;8.25;4.78;;;22.90;44.20;;;;;;5025880;28;114857;-79
2023/09/05 09:25:26;;;;;;;5.90;4.57;;;22.90;44.40;;;;;;5026479;28;114483;-79
2023/09/05 09:27:54;;;;;;;7.95;4.85;;;22.90;44.50;;;;;;5008875;28;114392;-80
2023/09/05 09:30:23;;;;;;;8.52;4.68;;;22.90;44.60;;;;;;5024208;28;116625;-78
2023/09/05 09:32:51;;;;;;;7.20;4.28;;;23.00;44.80;;;;;;5007693;28;117301;-78
2023/09/05 09:35:18;;;;;;;6.75;4.82;;;23.20;44.70;;;;;;5026461;28;114449;-78
2023/09/05 09:37:52;;;;;;;9.88;4.63;;;23.20;44.30;;;;;;5025328;28;114833;-79
2023/09/05 09:40:19;;;;;;;7.72;4.53;;;23.10;44.60;;;;;;5025822;28;115046;-78
2023/09/05 09:42:50;;;;;;;6.10;4.80;;;23.00;44.90;;;;;;5025561;27;114983;-78
2023/09/05 09:45:17;;;;;;;7.22;4.95;;;23.00;45.20;;;;;;5025413;28;114038;-79
2023/09/05 09:47:49;;;;;;;7.35;5.03;;;23.10;45.20;;;;;;5024790;28;114651;-80
2023/09/05 09:50:17;;;;;;;6.80;4.85;;;23.20;45.10;;;;;;5023905;28;115269;-80
2023/09/05 09:52:45;;;;;;;6.65;4.55;;;23.20;44.70;;;;;;5024189;28;115850;-79
2023/09/05 09:55:15;;;;;;;6.72;4.50;;;23.20;44.30;;;;;;5025060;28;114161;-79
2023/09/05 09:57:46;;;;;;;7.57;4.80;;;23.20;44.50;;;;;;5025165;28;114599;-79
2023/09/05 10:00:15;;;;;;;7.70;5.00;;;23.20;44.90;;;;;;5007128;28;116990;-79
2023/09/05 10:02:45;;;;;;;8.13;4.68;;;23.10;45.30;;;;;;5025089;28;114660;-79
2023/09/05 10:05:15;;;;;;;6.90;4.57;;;23.10;45.40;;;;;;5024956;28;114402;-78
2023/09/05 10:07:46;;;;;;;8.05;4.78;;;23.10;45.00;;;;;;5025593;28;114223;-78
2023/09/05 10:10:15;;;;;;;7.07;4.45;;;23.10;43.80;;;;;;5024212;28;114974;-78
2023/09/05 10:12:46;;;;;;;6.20;4.50;;;23.10;43.20;;;;;;5024106;28;114705;-79
2023/09/05 10:15:13;;;;;;;5.32;4.20;;;23.10;43.50;;;;;;5023782;28;114327;-79
2023/09/05 10:17:44;;;;;;;7.28;4.30;;;23.10;43.70;;;;;;5024806;28;114256;-79
2023/09/05 10:20:14;;;;;;;6.53;4.80;;;23.30;43.20;;;;;;5023663;28;115477;-80
2023/09/05 10:22:44;;;;;;;6.00;4.68;;;23.20;43.00;;;;;;5024206;28;115350;-78
2023/09/05 10:25:13;;;;;;;7.10;4.35;;;23.20;43.00;;;;;;5025700;27;114247;-78
2023/09/05 10:27:43;;;;;;;7.28;4.57;;;23.10;42.50;;;;;;5026200;28;114375;-79
2023/09/05 10:30:11;;;;;;;6.80;4.35;;;23.20;43.00;;;;;;5025801;28;115818;-79
2023/09/05 10:32:44;;;;;;;6.38;4.32;;;23.20;43.30;;;;;;5026928;27;114068;-78
2023/09/05 10:35:16;;;;;;;6.55;4.20;;;23.30;43.10;;;;;;5025749;28;114209;-78
2023/09/05 10:37:49;;;;;;;6.43;4.63;;;23.30;43.20;;;;;;5026015;28;114324;-78
2023/09/05 10:40:18;;;;;;;4.88;3.92;;;23.20;42.90;;;;;;5022854;28;117809;-79
2023/09/05 10:42:54;;;;;;;6.35;4.20;;;22.90;43.50;;;;;;5024833;27;115720;-78
2023/09/05 10:45:21;;;;;;;6.18;4.30;;;22.90;43.30;;;;;;5029364;28;114442;-77
2023/09/05 10:47:49;;;;;;;5.60;3.97;;;23.00;43.10;;;;;;5029357;28;114239;-79
2023/09/05 10:50:20;;;;;;;7.35;4.38;;;23.00;43.30;;;;;;5028480;28;115089;-77
2023/09/05 10:53:06;;;;;;;7.10;4.65;;;23.10;43.30;;;;;;5027055;28;116066;-79
2023/09/05 10:55:39;;;;;;;7.50;4.22;;;23.20;43.30;;;;;;5028049;28;114169;-78
2023/09/05 10:58:36;;;;;;;4.80;3.95;;;23.30;43.50;;;;;;5028381;28;114318;-80
2023/09/05 11:01:29;;;;;;;6.15;3.60;;;23.30;43.00;;;;;;5028114;28;115113;-78
2023/09/05 11:04:03;;;;;;;6.43;4.40;;;23.30;42.80;;;;;;5028154;28;115238;-78
2023/09/05 11:06:30;;;;;;;;;;;23.20;42.70;;;;;;5027915;28;114317;-79
2023/09/05 11:09:05;;;;;;;7.78;4.40;;;23.10;43.10;;;;;;5029186;28;114255;-79
2023/09/05 11:11:35;;;;;;;7.72;3.95;;;23.10;43.00;;;;;;5010710;28;115978;-79
2023/09/05 11:14:03;;;;;;;5.32;4.10;;;23.10;42.80;;;;;;5026407;28;115739;-77
2023/09/05 11:16:52;;;;;;;6.95;4.22;;;23.10;42.70;;;;;;5028918;28;114119;-78
2023/09/05 11:19:37;;;;;;;5.63;3.72;;;23.20;42.70;;;;;;5028872;27;114014;-78
2023/09/05 11:22:18;;;;;;;8.45;4.40;;;23.20;42.70;;;;;;5026908;28;115116;-79
2023/09/05 11:24:48;;;;;;;7.05;4.00;;;23.30;42.40;;;;;;5028305;28;115401;-77
2023/09/05 11:27:20;;;;;;;7.00;4.18;;;23.20;42.10;;;;;;5028503;28;114140;-79
2023/09/05 11:29:47;;;;;;;7.88;3.78;;;23.30;42.20;;;;;;5028878;28;114357;-78
2023/09/05 11:32:14;;;;;;;7.25;4.07;;;23.40;42.50;;;;;;5025996;28;114921;-78
2023/09/05 11:34:43;;;;;;;6.28;3.83;;;23.30;42.40;;;;;;5026554;28;115432;-77
2023/09/05 11:37:17;;;;;;;6.80;4.03;;;23.30;42.20;;;;;;5027540;28;114128;-78
2023/09/05 11:39:45;;;;;;;5.95;4.10;;;23.30;42.50;;;;;;5027398;28;114347;-78
2023/09/05 11:42:31;;;;;;;7.60;4.53;;;23.30;42.30;;;;;;5027233;28;115686;-79
2023/09/05 11:44:59;;;;;;;5.97;4.38;;;23.40;42.10;;;;;;5026218;28;114662;-79
2023/09/05 11:47:29;;;;;;;6.53;3.60;;;23.40;42.20;;;;;;5010566;28;114435;-79
2023/09/05 11:49:57;;;;;;;5.88;4.15;;;23.40;42.00;;;;;;5010712;28;114433;-80
2023/09/05 11:52:24;;;;;;;7.03;4.50;;;23.30;42.50;;;;;;5027105;28;116051;-78
2023/09/05 11:54:52;;;;;;;6.95;4.30;;;23.30;43.00;;;;;;5024860;27;114653;-78
2023/09/05 11:57:20;;;;;;;6.30;4.10;;;23.30;43.10;;;;;;5026763;28;114493;-80
2023/09/05 11:59:48;;;;;;;6.15;3.97;;;23.30;42.90;;;;;;5028092;28;114217;-79
2023/09/05 12:02:21;;;;;;;;;;;23.30;42.50;;;;;;5027521;28;115813;-79
2023/09/05 12:04:48;;;;;;;6.28;3.58;;;23.20;43.10;;;;;;5029336;28;114725;-78
2023/09/05 12:07:15;;;;;;;6.28;3.72;;;23.10;43.20;;;;;;5028590;28;114310;-79
2023/09/05 12:09:47;;;;;;;4.50;3.42;;;23.30;42.50;;;;;;5027144;28;114589;-78
2023/09/05 12:12:18;;;;;;;5.80;4.20;;;23.30;42.40;;;;;;5028727;28;116860;-79
2023/09/05 12:14:55;;;;;;;7.35;4.28;;;23.40;42.20;;;;;;5027340;28;114651;-79
2023/09/05 12:17:26;;;;;;;7.15;4.05;;;23.40;42.70;;;;;;5026599;28;114274;-78
2023/09/05 12:19:55;;;;;;;6.47;4.22;;;23.30;43.00;;;;;;5010432;28;114424;-78
2023/09/05 12:22:26;;;;;;;5.95;4.35;;;23.30;43.40;;;;;;5026603;28;114871;-78
2023/09/05 12:25:16;;;;;;;6.55;4.13;;;23.30;43.10;;;;;;5026925;28;114659;-78
2023/09/05 12:27:48;;;;;;;;;;;23.30;43.20;;;;;;5028354;28;114100;-79
2023/09/05 12:30:29;;;;;;;5.20;4.10;;;23.20;43.40;;;;;;5010384;28;114344;-79
2023/09/05 12:32:57;;;;;;;5.78;4.53;;;23.20;43.60;;;;;;5008862;28;117442;-78
2023/09/05 12:35:26;;;;;;;6.18;3.80;;;23.20;43.70;;;;;;5025545;28;115362;-78
2023/09/05 12:37:54;;;;;;;6.00;4.13;;;23.20;43.60;;;;;;4976412;28;114352;-78
2023/09/05 12:40:25;;;;;;;6.55;4.00;;;23.10;43.70;;;;;;5028068;28;114333;-79
2023/09/05 12:42:52;;;;;;;5.90;3.92;;;23.10;44.00;;;;;;5025384;28;114846;-79
2023/09/05 12:45:20;;;;;;;5.93;3.67;;;23.00;43.70;;;;;;5025033;28;117481;-79